Terminal Aerodrome Forecast
Issued by NWS

Home | Current Version | Previous Version | Text Only | Print | Product List | Glossary On
Versions: 1 2 3 4 5 6 7 8 9 10 11 12 13 14 15
000
FTUS46 KPDT 022300
TAFYKM
TAF
KYKM 022327Z 0300/0324 35008KT P6SM BKN060 BKN100
     FM030400 30012KT P6SM SCT100 BKN250
     FM030800 01008KT P6SM SCT250
     FM031800 VRB06KT P6SM FEW250=

USA.gov is the U.S. government's official web portal to all federal, state and local government web resources and services.